Hoerby, Sweden

6:06 AM CEST on July 29, 2016 (GMT +0200)
Stavroed | | Change Station

Elev 413 ft 55.87 °N, 13.71 °E | Updated 34 seconds ago

Clear
Clear
44.2 °F
Feels Like 44 °F
N
0.0
Wind Variable Wind from East
Gusts 0.0 mph

Today
High -- | Low -- °F
--% Chance of Precip.
Yesterday
High -- | Low -- °F
Precip. -- in
Pressure 29.89 in
Visibility -9999.0 miles
Clouds
Windchill 44 °F
Dew Point 44 °F
Humidity 99%
Rainfall 0.01 in
Snow Depth Not available.
5:04 AM 9:17 PM
Waning Crescent, 26% visible
METAR ESMK 290350Z AUTO 30003KT 0650 R01/P2000N R19/P2000N NCD 08/08 Q1012
Pressure 29.89 in
Visibility -9999.0 miles
Clouds
Windchill 44 °F
Dew Point 44 °F
Humidity 99%
Rainfall 0.01 in
Snow Depth Not available.
5:04 AM 9:17 PM
Waning Crescent, 26% visible
METAR ESMK 290350Z AUTO 30003KT 0650 R01/P2000N R19/P2000N NCD 08/08 Q1012

10-Day Weather Forecast

×

Almanac

Astronomy

Jul. 29, 2016 Rise Set
Actual Time
Civil Twilight
Nautical Twilight
Astronomical Twilight
Moon
Length of Visible Light
Length of Day
Tomorrow will be .
, % of the Moon is Illuminated

Today's Extremes

Country Highs Country Lows

Community

WunderPhotos

Upload Photos

1,928,292 photos uploaded!

WunderBlog® & News

Nearby

Air Quality

  Air Quality AQ Index Pollutant
Not available.

Snow Depth

Station Depth Elevation

Earthquake Activity

City Distance Mag. Time & Date
Minimum magnitude displayed is 2.5.

Coastal Water Temperatures

Place Temperature

Stations

Nearby Weather Stations

Station Location Temp. Windchill Dew Point Humidity Wind Precip. Elev Updated Type